Terminal Aerodrome Forecast
Issued by NWS Cleveland, OH

Home | Current Version | Previous Version | Graphics & Text | Print | Product List | Glossary On
Versions: 1 2 3 4 5 6 7 8 9 10 11 12 13 14 15 16 17
000
FTUS41 KCLE 271700
TAFTOL
TAF
KTOL 271729Z 2718/2818 01006KT P6SM SCT030
      TEMPO 2718/2719 BKN030
     FM280000 02004KT P6SM SCT250
      TEMPO 2809/2812 5SM BR=

USA.gov is the U.S. government's official web portal to all federal, state and local government web resources and services.